createdAt,value
2022-11-21T01:26:43.816Z,16.30
2022-11-21T01:29:13.103Z,15.02
2022-11-21T01:31:42.327Z,19.33
2022-11-21T01:34:11.407Z,25.13
2022-11-21T01:36:40.599Z,19.35
2022-11-21T01:39:10.522Z,35.38
2022-11-21T01:41:43.503Z,28.13
2022-11-21T01:44:19.841Z,23.08
2022-11-21T01:46:49.146Z,15.38
2022-11-21T01:49:21.932Z,15.32
2022-11-21T01:51:55.128Z,24.88
2022-11-21T01:54:30.695Z,15.65
2022-11-21T01:57:05.443Z,18.77
2022-11-21T01:59:37.928Z,25.35
2022-11-21T02:02:10.315Z,27.85
2022-11-21T02:04:40.830Z,32.95
2022-11-21T02:07:12.849Z,30.85
2022-11-21T02:09:45.341Z,33.75
2022-11-21T02:12:24.886Z,23.50
2022-11-21T02:14:55.576Z,27.08
2022-11-21T02:17:24.694Z,25.17
2022-11-21T02:19:56.926Z,25.05
2022-11-21T02:22:36.976Z,17.25
2022-11-21T02:25:14.323Z,26.83
2022-11-21T02:27:44.648Z,38.72
2022-11-21T02:30:15.400Z,42.28
2022-11-21T02:32:48.495Z,42.15
2022-11-21T02:35:20.474Z,28.13
2022-11-21T02:37:56.755Z,35.08
2022-11-21T02:40:32.151Z,20.52
2022-11-21T02:43:08.299Z,17.38
2022-11-21T02:45:42.031Z,26.48
2022-11-21T02:48:13.095Z,32.83
2022-11-21T02:50:47.593Z,25.52
2022-11-21T02:53:19.832Z,20.10
2022-11-21T02:55:50.467Z,16.88
2022-11-21T02:58:20.697Z,24.30
2022-11-21T03:00:49.984Z,13.40
2022-11-21T03:03:19.164Z,16.90
2022-11-21T03:05:48.753Z,12.02
2022-11-21T03:08:17.917Z,17.73
2022-11-21T03:10:47.001Z,16.30
2022-11-21T03:13:17.713Z,6.88
2022-11-21T03:15:46.872Z,22.65
2022-11-21T03:18:16.256Z,21.05
2022-11-21T03:20:45.441Z,22.40
2022-11-21T03:23:14.670Z,28.55
2022-11-21T03:25:43.820Z,26.73
2022-11-21T03:28:12.944Z,21.98
2022-11-21T03:30:43.589Z,35.08
2022-11-21T03:33:12.759Z,23.88
2022-11-21T03:35:41.959Z,26.95
2022-11-21T03:38:11.107Z,26.23
2022-11-21T03:40:45.320Z,19.00
2022-11-21T03:43:14.521Z,18.13
2022-11-21T03:45:48.680Z,25.90
2022-11-21T03:48:17.897Z,30.80
2022-11-21T03:50:47.039Z,17.65
2022-11-21T03:53:16.157Z,12.68
2022-11-21T03:55:45.365Z,14.70
2022-11-21T03:58:14.432Z,22.55
2022-11-21T04:00:45.082Z,16.35
2022-11-21T04:03:15.384Z,19.20
2022-11-21T04:05:49.395Z,19.00
2022-11-21T04:08:18.515Z,12.55
2022-11-21T04:10:49.521Z,14.60
2022-11-21T04:13:18.727Z,17.70
2022-11-21T04:16:22.513Z,17.65
2022-11-21T04:18:56.043Z,20.83
2022-11-21T04:21:25.475Z,14.90
2022-11-21T04:23:55.406Z,17.95
2022-11-21T04:26:24.970Z,25.83
2022-11-21T04:28:54.231Z,19.52
2022-11-21T04:31:25.001Z,13.93
2022-11-21T04:33:54.190Z,24.02
2022-11-21T04:36:23.360Z,16.77
2022-11-21T04:38:52.648Z,14.63
2022-11-21T04:41:22.061Z,13.70
2022-11-21T04:43:57.264Z,11.48
2022-11-21T04:46:27.862Z,19.98
2022-11-21T04:48:57.005Z,15.60
2022-11-21T04:51:26.389Z,18.02
2022-11-21T04:53:58.009Z,9.20
2022-11-21T04:56:27.228Z,14.45
2022-11-21T04:58:56.415Z,15.07
2022-11-21T05:01:29.342Z,17.55
2022-11-21T05:03:58.575Z,13.40
2022-11-21T05:06:30.443Z,10.88
2022-11-21T05:08:59.591Z,11.60
2022-11-21T05:11:45.588Z,13.85
2022-11-21T05:14:14.957Z,14.52
2022-11-21T05:16:45.691Z,12.13
2022-11-21T05:19:15.880Z,12.20
2022-11-21T05:21:47.577Z,14.82
2022-11-21T05:24:18.875Z,19.92
2022-11-21T05:26:48.027Z,6.55
2022-11-21T05:29:17.257Z,8.73
2022-11-21T05:31:47.951Z,10.07
2022-11-21T05:34:17.248Z,21.20
2022-11-21T05:36:46.468Z,12.55
2022-11-21T05:39:16.311Z,11.90
2022-11-21T05:41:45.540Z,12.13
2022-11-21T05:44:13.595Z,11.80
2022-11-21T05:46:43.075Z,12.95
2022-11-21T05:49:16.662Z,9.35
2022-11-21T05:51:45.872Z,5.70
2022-11-21T05:54:15.939Z,14.07
2022-11-21T05:56:45.146Z,7.00
2022-11-21T05:59:14.454Z,11.85
2022-11-21T06:02:00.996Z,16.08
2022-11-21T06:04:34.074Z,16.30
2022-11-21T06:07:03.403Z,9.65
2022-11-21T06:09:35.095Z,12.60
2022-11-21T06:12:04.345Z,13.70
2022-11-21T06:14:33.500Z,9.95
2022-11-21T06:17:02.695Z,11.98
2022-11-21T06:19:33.376Z,14.65
2022-11-21T06:22:02.546Z,13.70
2022-11-21T06:24:34.540Z,13.15
2022-11-21T06:27:03.753Z,8.00
2022-11-21T06:29:32.936Z,11.63
2022-11-21T06:32:02.399Z,16.20
2022-11-21T06:34:33.168Z,13.07
2022-11-21T06:37:04.793Z,4.95
2022-11-21T06:39:34.038Z,9.45
2022-11-21T06:42:03.988Z,6.55
2022-11-21T06:44:33.082Z,7.00
2022-11-21T06:47:05.312Z,9.98
2022-11-21T06:49:36.039Z,9.80
2022-11-21T06:52:05.465Z,8.13
2022-11-21T06:54:34.916Z,5.63
2022-11-21T06:57:09.991Z,6.38
2022-11-21T06:59:41.753Z,11.68
2022-11-21T07:02:14.388Z,13.88
2022-11-21T07:04:47.636Z,10.90
2022-11-21T07:07:18.704Z,10.13
2022-11-21T07:09:48.915Z,12.75
2022-11-21T07:12:35.483Z,11.65
2022-11-21T07:15:04.597Z,14.45
2022-11-21T07:17:33.684Z,9.48
2022-11-21T07:20:06.867Z,14.52
2022-11-21T07:22:36.016Z,13.23
2022-11-21T07:25:05.757Z,9.32
2022-11-21T07:27:35.944Z,9.25
2022-11-21T07:30:05.346Z,17.40
2022-11-21T07:32:34.526Z,9.93
2022-11-21T07:35:07.499Z,11.90
2022-11-21T07:37:41.280Z,12.82
2022-11-21T07:40:10.979Z,14.35
2022-11-21T07:42:40.242Z,19.00
2022-11-21T07:45:13.399Z,16.83
2022-11-21T07:47:42.713Z,10.77
2022-11-21T07:50:14.466Z,12.60
2022-11-21T07:52:43.562Z,15.52
2022-11-21T07:55:12.732Z,16.60
2022-11-21T07:57:41.844Z,13.48
2022-11-21T08:00:12.149Z,15.35
2022-11-21T08:02:41.340Z,17.10
2022-11-21T08:05:11.106Z,11.85
2022-11-21T08:07:41.955Z,11.52
2022-11-21T08:10:11.539Z,10.15
2022-11-21T08:12:43.237Z,11.05
2022-11-21T08:15:15.488Z,12.63
2022-11-21T08:17:45.067Z,16.27
2022-11-21T08:20:14.225Z,13.77
2022-11-21T08:22:44.807Z,12.55
2022-11-21T08:25:14.234Z,10.55
2022-11-21T08:27:43.912Z,13.13
2022-11-21T08:30:14.499Z,9.90
2022-11-21T08:32:45.561Z,10.80
2022-11-21T08:35:14.689Z,13.90
2022-11-21T08:37:45.296Z,24.27
2022-11-21T08:40:14.508Z,19.30
2022-11-21T08:42:43.728Z,18.52
2022-11-21T08:45:13.108Z,17.77
2022-11-21T08:47:42.150Z,16.35
2022-11-21T08:50:11.791Z,17.65
2022-11-21T08:52:41.959Z,21.52
2022-11-21T08:55:14.001Z,23.98
2022-11-21T08:57:45.288Z,23.85
2022-11-21T09:00:17.942Z,24.75
2022-11-21T09:02:47.164Z,23.02
2022-11-21T09:05:21.047Z,22.33
2022-11-21T09:07:58.883Z,25.70
2022-11-21T09:10:29.936Z,24.55
2022-11-21T09:13:00.001Z,20.67
2022-11-21T09:15:46.311Z,27.40
2022-11-21T09:18:15.550Z,23.95
2022-11-21T09:20:46.358Z,29.00
2022-11-21T09:23:19.884Z,32.83
2022-11-21T09:25:52.979Z,26.60
2022-11-21T09:28:22.251Z,34.20
2022-11-21T09:30:51.510Z,35.75
2022-11-21T09:33:20.655Z,21.08
2022-11-21T09:35:50.389Z,34.05
2022-11-21T09:38:23.895Z,34.22
2022-11-21T09:41:23.547Z,39.45
2022-11-21T09:44:03.793Z,36.47
2022-11-21T09:46:42.508Z,41.53
2022-11-21T09:49:15.719Z,34.35
2022-11-21T09:51:47.301Z,33.22
2022-11-21T09:54:35.519Z,25.05
2022-11-21T09:57:06.430Z,23.58
2022-11-21T09:59:43.435Z,25.83
2022-11-21T10:02:17.984Z,18.25
2022-11-21T10:04:49.179Z,12.95
2022-11-21T10:07:30.302Z,11.02
2022-11-21T10:10:26.105Z,21.92
2022-11-21T10:13:18.027Z,28.35
2022-11-21T10:15:59.109Z,29.73
2022-11-21T10:19:02.858Z,29.92
2022-11-21T10:21:54.176Z,23.88
2022-11-21T10:24:41.083Z,26.73
2022-11-21T10:27:17.196Z,32.85
2022-11-21T10:29:55.368Z,29.10
2022-11-21T10:32:27.824Z,30.80
2022-11-21T10:35:03.258Z,24.00
2022-11-21T10:37:37.262Z,20.35
2022-11-21T10:40:20.634Z,18.08
2022-11-21T10:42:59.073Z,14.18
2022-11-21T10:45:30.776Z,18.30
2022-11-21T10:48:02.658Z,12.35
2022-11-21T10:50:50.161Z,22.70
2022-11-21T10:53:41.858Z,18.58
2022-11-21T10:56:16.532Z,18.77
2022-11-21T10:58:49.951Z,17.77
2022-11-21T11:01:26.733Z,17.70
2022-11-21T11:04:45.700Z,23.83
2022-11-21T11:07:24.140Z,22.63
2022-11-21T11:09:54.163Z,20.77
2022-11-21T11:12:53.997Z,17.85
2022-11-21T11:15:25.708Z,12.65
2022-11-21T11:18:01.389Z,19.88
2022-11-21T11:20:39.589Z,14.65
2022-11-21T11:23:25.311Z,27.42
2022-11-21T11:25:56.073Z,20.35
2022-11-21T11:28:26.165Z,33.22
2022-11-21T11:30:57.530Z,26.80
2022-11-21T11:33:39.010Z,43.63
2022-11-21T11:36:22.959Z,33.83
2022-11-21T11:38:57.672Z,18.17
2022-11-21T11:42:16.433Z,28.30
2022-11-21T11:45:16.311Z,40.63
2022-11-21T11:47:54.687Z,55.65
2022-11-21T11:50:31.319Z,53.15
2022-11-21T11:53:06.184Z,57.85
2022-11-21T11:55:42.722Z,53.23
2022-11-21T11:58:22.856Z,33.00
2022-11-21T12:00:58.950Z,45.75
2022-11-21T12:03:39.406Z,43.78
2022-11-21T12:06:17.456Z,42.25
2022-11-21T12:08:54.715Z,49.78
2022-11-21T12:11:47.818Z,49.28
2022-11-21T12:14:43.533Z,57.00
2022-11-21T12:17:13.700Z,66.95
2022-11-21T12:19:42.972Z,72.93
2022-11-21T12:22:13.719Z,79.47
2022-11-21T12:24:43.525Z,82.93
2022-11-21T12:27:27.804Z,96.72
2022-11-21T12:30:41.506Z,93.93
2022-11-21T12:33:19.583Z,102.60
2022-11-21T12:36:19.671Z,93.78
2022-11-21T12:39:07.579Z,81.50
2022-11-21T12:41:59.965Z,91.03
2022-11-21T12:44:47.120Z,103.95
2022-11-21T12:47:53.551Z,91.25
2022-11-21T12:50:49.825Z,119.95
2022-11-21T12:53:44.605Z,140.13
2022-11-21T12:56:26.186Z,120.72
2022-11-21T12:58:57.736Z,106.07
2022-11-21T13:01:37.939Z,115.28
2022-11-21T13:04:11.661Z,112.57
2022-11-21T13:06:45.265Z,124.65
2022-11-21T13:09:18.360Z,118.53
2022-11-21T13:12:02.047Z,109.60
2022-11-21T13:14:38.179Z,145.32
2022-11-21T13:17:17.768Z,137.35
2022-11-21T13:19:53.437Z,110.65
2022-11-21T13:22:50.853Z,104.57
2022-11-21T13:25:53.075Z,114.88
2022-11-21T13:28:36.330Z,102.85
2022-11-21T13:31:23.546Z,73.53
2022-11-21T13:33:59.027Z,76.00
2022-11-21T13:36:42.417Z,70.70
2022-11-21T13:39:36.351Z,71.78
2022-11-21T13:42:24.926Z,76.18
2022-11-21T13:44:56.040Z,67.38
2022-11-21T13:47:57.756Z,79.63
2022-11-21T13:50:42.845Z,78.30
2022-11-21T13:53:32.683Z,65.05
2022-11-21T13:56:08.080Z,70.43
2022-11-21T13:58:55.461Z,66.97
2022-11-21T14:01:52.195Z,66.18
2022-11-21T14:04:47.100Z,56.83
2022-11-21T14:07:25.416Z,66.78
2022-11-21T14:09:56.075Z,59.03
2022-11-21T14:12:34.400Z,58.75
2022-11-21T14:15:25.286Z,59.85
2022-11-21T14:17:59.075Z,37.17
2022-11-21T14:20:30.676Z,28.27
2022-11-21T14:23:03.804Z,36.83
2022-11-21T14:25:44.688Z,19.10
2022-11-21T14:28:18.429Z,18.58
2022-11-21T14:30:47.822Z,22.88
2022-11-21T14:33:26.599Z,15.95
2022-11-21T14:35:59.823Z,31.17
2022-11-21T14:38:30.995Z,25.60
2022-11-21T14:41:27.371Z,18.52
2022-11-21T14:44:17.109Z,18.38
2022-11-21T14:46:47.701Z,16.45
2022-11-21T14:49:32.370Z,37.55
2022-11-21T14:52:08.227Z,27.67
2022-11-21T14:57:34.678Z,21.10
2022-11-21T15:00:07.332Z,21.27
2022-11-21T15:02:37.586Z,22.35
2022-11-21T15:05:21.255Z,23.52
2022-11-21T15:08:32.734Z,25.75
2022-11-21T15:10:53.076Z,19.33
2022-11-21T15:13:39.495Z,26.10
2022-11-21T15:16:15.913Z,27.40
2022-11-21T15:18:48.310Z,17.60
2022-11-21T15:21:19.208Z,24.98
2022-11-21T15:23:48.432Z,20.13
2022-11-21T15:26:32.753Z,24.75
2022-11-21T15:29:03.165Z,26.95
2022-11-21T15:31:32.286Z,13.82
2022-11-21T15:37:09.018Z,19.48
2022-11-21T15:39:40.777Z,24.80
2022-11-21T15:42:46.938Z,18.73
2022-11-21T15:45:28.395Z,29.50
2022-11-21T15:47:57.566Z,20.73
2022-11-21T15:50:27.388Z,28.48
2022-11-21T15:53:00.859Z,25.70
2022-11-21T15:55:32.054Z,49.92
2022-11-21T15:58:01.265Z,32.70
2022-11-21T16:00:33.163Z,28.55
2022-11-21T16:03:02.334Z,37.88
2022-11-21T16:05:31.735Z,37.38
2022-11-21T16:08:02.714Z,39.72
2022-11-21T16:10:31.934Z,37.78
2022-11-21T16:13:01.154Z,37.70
2022-11-21T16:15:30.369Z,51.60
2022-11-21T16:17:59.589Z,51.53
2022-11-21T16:20:29.168Z,64.82
2022-11-21T16:23:00.951Z,52.00
2022-11-21T16:25:31.589Z,55.15
2022-11-21T16:28:06.809Z,71.40
2022-11-21T16:30:36.665Z,53.53
2022-11-21T16:33:05.947Z,58.95
2022-11-21T16:35:35.091Z,64.95
2022-11-21T16:38:06.235Z,58.22
2022-11-21T16:40:37.324Z,76.90
2022-11-21T16:43:11.560Z,69.70
2022-11-21T16:45:41.450Z,73.38
2022-11-21T16:48:10.688Z,77.68
2022-11-21T16:50:40.200Z,78.85
2022-11-21T16:53:09.538Z,85.65
2022-11-21T16:55:40.317Z,97.93
2022-11-21T16:58:09.710Z,92.15
2022-11-21T17:00:39.839Z,74.05
2022-11-21T17:03:09.232Z,75.55
2022-11-21T17:05:38.586Z,64.35
2022-11-21T17:08:08.105Z,72.53
2022-11-21T17:10:37.446Z,59.80
2022-11-21T17:13:08.298Z,58.55
2022-11-21T17:15:37.580Z,48.65
2022-11-21T17:18:06.957Z,59.42
2022-11-21T17:20:36.310Z,50.78
2022-11-21T17:23:05.585Z,52.97
2022-11-21T17:25:35.045Z,44.15
2022-11-21T17:28:04.559Z,40.72
2022-11-21T17:30:35.892Z,47.53
2022-11-21T17:33:05.192Z,40.42
2022-11-21T17:35:34.586Z,44.22
2022-11-21T17:38:03.946Z,36.72
2022-11-21T17:40:33.607Z,35.90
2022-11-21T17:43:02.868Z,39.40
2022-11-21T17:45:32.114Z,50.45
2022-11-21T17:48:03.011Z,52.05
2022-11-21T17:50:32.424Z,46.70
2022-11-21T17:53:01.738Z,33.72
2022-11-21T17:55:31.113Z,39.08
2022-11-21T17:58:00.464Z,35.15
2022-11-21T18:00:29.812Z,35.67
2022-11-21T18:02:59.179Z,39.55
2022-11-21T18:05:29.969Z,42.90
2022-11-21T18:07:59.931Z,37.65
2022-11-21T18:10:42.953Z,31.05
2022-11-21T18:13:13.169Z,38.58
2022-11-21T18:15:42.403Z,31.38
2022-11-21T18:18:11.677Z,39.10
2022-11-21T18:21:03.141Z,42.45
2022-11-21T18:23:32.531Z,42.20
2022-11-21T18:26:06.114Z,40.20
2022-11-21T18:28:36.037Z,38.90
2022-11-21T18:31:06.672Z,34.45
2022-11-21T18:33:36.182Z,28.38
2022-11-21T18:36:08.990Z,24.38
2022-11-21T18:38:48.808Z,27.48
2022-11-21T18:41:22.399Z,38.70
2022-11-21T18:43:53.245Z,35.38
2022-11-21T18:46:24.719Z,31.75
2022-11-21T18:49:04.112Z,29.60
2022-11-21T18:51:36.774Z,25.83
2022-11-21T18:54:08.855Z,31.00
2022-11-21T18:56:38.905Z,41.13
2022-11-21T18:59:08.628Z,34.53
2022-11-21T19:01:39.846Z,27.38
2022-11-21T19:04:09.854Z,29.50
2022-11-21T19:06:40.619Z,29.77
2022-11-21T19:09:09.969Z,27.45
2022-11-21T19:11:39.263Z,31.73
2022-11-21T19:14:08.669Z,29.67
2022-11-21T19:16:37.897Z,24.95
2022-11-21T19:21:59.397Z,31.17
2022-11-21T19:24:28.756Z,27.40
2022-11-21T19:26:58.116Z,23.42
2022-11-21T19:29:27.692Z,31.85
2022-11-21T19:31:57.366Z,28.80
2022-11-21T19:34:26.717Z,22.40
2022-11-21T19:36:56.188Z,34.22
2022-11-21T19:39:27.459Z,31.58
2022-11-21T19:41:56.983Z,25.02
2022-11-21T19:44:26.238Z,19.50
2022-11-21T19:46:55.479Z,28.42
2022-11-21T19:49:24.803Z,20.23
2022-11-21T19:51:54.129Z,27.55
2022-11-21T19:54:23.508Z,27.92
2022-11-21T19:56:54.374Z,17.58
2022-11-21T19:59:24.235Z,27.95
2022-11-21T20:01:53.591Z,26.90
2022-11-21T20:04:22.928Z,30.38
2022-11-21T20:06:52.393Z,25.42
2022-11-21T20:09:23.690Z,29.08
2022-11-21T20:11:54.879Z,21.98
2022-11-21T20:14:24.304Z,17.98
2022-11-21T20:16:54.388Z,27.27
2022-11-21T20:19:25.803Z,26.73
2022-11-21T20:21:55.280Z,18.63
2022-11-21T20:24:24.720Z,19.10
2022-11-21T20:27:34.490Z,19.52
2022-11-21T20:30:03.838Z,15.40
2022-11-21T20:32:35.437Z,25.10
2022-11-21T20:35:04.729Z,23.42
2022-11-21T20:37:34.055Z,24.23
2022-11-21T20:40:03.385Z,26.10
2022-11-21T20:42:34.918Z,27.98
2022-11-21T20:47:53.690Z,29.67
2022-11-21T20:51:01.474Z,21.83
2022-11-21T20:59:57.141Z,28.05
2022-11-21T21:02:26.533Z,18.33
2022-11-21T21:04:55.803Z,21.55
2022-11-21T21:07:25.235Z,21.73
2022-11-21T21:09:56.351Z,27.00
2022-11-21T21:12:26.402Z,18.95
2022-11-21T21:14:57.236Z,22.33
2022-11-21T21:17:26.540Z,24.02
2022-11-21T21:19:55.893Z,15.80
2022-11-21T21:22:25.196Z,23.75
2022-11-21T21:24:54.501Z,20.98
2022-11-21T21:27:23.815Z,17.85
2022-11-21T21:29:53.129Z,24.60
2022-11-21T21:32:23.891Z,21.92
2022-11-21T21:34:53.188Z,18.75
2022-11-21T21:37:22.640Z,17.23
2022-11-21T21:39:52.034Z,23.95
2022-11-21T21:42:21.301Z,20.83
2022-11-21T21:44:50.572Z,15.85
2022-11-21T21:47:21.773Z,19.20
2022-11-21T21:49:53.061Z,22.33
2022-11-21T21:52:22.422Z,20.50
2022-11-21T21:54:51.603Z,18.80
2022-11-21T21:57:20.861Z,15.88
2022-11-21T21:59:50.159Z,13.38
2022-11-21T22:02:19.509Z,16.75
2022-11-21T22:04:51.989Z,14.23
2022-11-21T22:07:23.485Z,17.17
2022-11-21T22:09:52.786Z,15.80
2022-11-21T22:12:22.133Z,22.58
2022-11-21T22:14:51.362Z,23.85
2022-11-21T22:17:20.752Z,15.30
2022-11-21T22:19:50.125Z,20.88
2022-11-21T22:22:19.407Z,21.48
2022-11-21T22:24:50.220Z,16.40
2022-11-21T22:27:19.576Z,15.30
2022-11-21T22:29:48.880Z,17.35
2022-11-21T22:32:19.787Z,18.05
2022-11-21T22:34:49.457Z,16.65
2022-11-21T22:37:18.838Z,21.20
2022-11-21T22:39:49.633Z,20.60
2022-11-21T22:42:18.955Z,18.58
2022-11-21T22:44:48.180Z,18.05
2022-11-21T22:47:17.537Z,15.98
2022-11-21T22:49:46.866Z,16.10
2022-11-21T22:52:16.234Z,14.88
2022-11-21T22:54:45.489Z,16.95
2022-11-21T22:57:16.489Z,16.52
2022-11-21T22:59:45.941Z,16.48
2022-11-21T23:02:15.302Z,20.52
2022-11-21T23:04:44.716Z,18.83
2022-11-21T23:07:14.122Z,23.15
2022-11-21T23:09:43.596Z,23.60
2022-11-21T23:12:12.854Z,19.52
2022-11-21T23:14:43.653Z,17.52
2022-11-21T23:17:12.971Z,17.23
2022-11-21T23:19:42.261Z,17.52
2022-11-21T23:22:12.349Z,17.58
2022-11-21T23:24:41.649Z,17.65
2022-11-21T23:27:10.922Z,18.70
2022-11-21T23:29:40.257Z,18.08
2022-11-21T23:32:11.005Z,17.70
2022-11-21T23:34:40.274Z,23.80
2022-11-21T23:37:09.572Z,19.65
2022-11-21T23:39:38.880Z,18.13
2022-11-21T23:42:08.245Z,24.00
2022-11-21T23:44:37.588Z,19.40
2022-11-21T23:47:06.929Z,18.95
2022-11-21T23:49:37.753Z,22.98
2022-11-21T23:52:07.150Z,21.65
2022-11-21T23:54:36.438Z,21.77
2022-11-21T23:57:06.002Z,17.80
2022-11-21T23:59:35.447Z,17.60
